Terminal Aerodrome Forecast
Issued by NWS

Home | Current Version | Previous Version | Text Only | Print | Product List | Glossary On
Versions: 1 2 3 4 5 6 7 8 9 10 11 12 13 14 15 16 17 18 19
000
FTAK31 PAJN 041154
TAFAKT
TAF
PAKT 041154Z 0412/0512 00000KT P6SM SKC
     FM041500 VRB05KT P6SM SKC
     FM041800 13010KT P6SM SCT200
     FM042200 14011KT P6SM BKN110
     FM050400 14009KT P6SM OVC060
     FM051000 15010G20KT 6SM -RA BKN025 OVC040
      AMD LTD TO CLD VIS AND WIND 0406/0415=

USA.gov is the U.S. government's official web portal to all federal, state and local government web resources and services.